Impacts TAF Board INFO
FOR SITUATIONAL AWARENESS. NOT TO BE USED FOR FLIGHT PLANNING PURPOSES.
IDs:

KCSG - Columbus Arpt, GA, US

Issued at 1137 UTC 20 May 2018
Updated at 1212 UTC 20 May 2018
Potential Impact None Slight Moderate High
Time<<21/01Z 21/02Z 21/03Z 21/04Z 21/05Z 21/06Z 21/07Z 21/08Z 21/09Z 21/10Z 21/11Z 21/12Z 21/13Z>>
Type PRVL PRVL PRVL PRVL PRVL PRVL PRVL PRVL PRVL PRVL PRVL
VIS >6 >6 >6 >6 >6 >6 >6 >6 6 6 6
CIG 50 50 50 40 40 15 15 15 10 10 10
Cover BKN BKN BKN BKN BKN OVC OVC OVC OVC OVC OVC
FltCat VFR VFR VFR VFR VFR MVFR MVFR MVFR MVFR MVFR MVFR
WX -- -- -- -- -- -- -- -- BR BR BR
WDir VRB VRB VRB 120 120 120 120 120 100 100 100
WSpd 3 3 3 5 5 5 5 5 6 6 6
WGst -- -- -- -- -- -- -- -- -- -- --

Raw TAF
KCSG 201137Z 2012/2112 00000KT P6SM FEW060
  FM201400 VRB03KT P6SM BKN050
  FM210400 12005KT P6SM BKN040
  FM210600 12005KT P6SM OVC015
  FM210900 10006KT 6SM BR OVC010


METAR Board
Radar Display
Forecast Discussion

FOR SITUATIONAL AWARENESS. NOT TO BE USED FOR FLIGHT PLANNING PURPOSES.